CheckWX is a tool to help pilots better visualize weather data.  It is not intended as a substitute for an official pre-flight weather briefing.

08:29:24 UTC

CYLJ METAR
Meadow Lake Airport
Meadow Lake, Canada
Current

8 hours ago

CYLJ 220000Z 14005KT 15SM FEW011 M17/M21 A3009 RMK SC1 SC TR LAST STFD OB/NXT 22 1200UTC SLP238
Observed
Feb-22 @ 00:00 UTC
Wind
  • 140° at 5 KTS
Visibility
15 SM
Flight Rules
VFR
Cloud Levels
  • Few at 1,100' AGL
Temperature
-17°C / 1°F
Dewpoint
-21°C / -6°F
Humidity
71%
Altimeter
30.09" Hg
Pressure
1023.8 hPa
Previous

9 hours ago

CYLJ 212300Z 26008KT 15SM FEW011 M15/M20 A3010 RMK SC1 SC TR SLP242
Observed
Feb-21 @ 23:00 UTC
Wind
  • 260° at 8 KTS
Visibility
15 SM
Flight Rules
VFR
Cloud Levels
  • Few at 1,100' AGL
Temperature
-15°C / 5°F
Dewpoint
-20°C / -4°F
Humidity
66%
Altimeter
30.1" Hg
Pressure
1024.2 hPa
Previous

10 hours ago

CYLJ 212200Z 30008KT 15SM FEW011 M15/M19 A3012 RMK SC1 SC TR SLP250
Observed
Feb-21 @ 22:00 UTC
Wind
  • 300° at 8 KTS
Visibility
15 SM
Flight Rules
VFR
Cloud Levels
  • Few at 1,100' AGL
Temperature
-15°C / 5°F
Dewpoint
-19°C / -2°F
Humidity
72%
Altimeter
30.12" Hg
Pressure
1025 hPa